Time;durP1;ratioP1;P1;durP2;ratioP2;P2;SDS_P1;SDS_P2;PMS_P1;PMS_P2;Temp;Humidity;BMP_temperature;BMP_pressure;BME280_temperature;BME280_humidity;BME280_pressure;Samples;Min_cycle;Max_cycle;Signal;HPM_P1;HPM_P2
2021/11/03 00:01:24;;;;;;;0.70;0.70;;;10.90;99.90;;;;;;5038145;28;20564;-80
2021/11/03 00:03:53;;;;;;;0.80;0.70;;;10.90;99.90;;;;;;5046500;28;20465;-80
2021/11/03 00:06:24;;;;;;;2.10;0.80;;;10.80;99.90;;;;;;5042716;28;20454;-80
2021/11/03 00:08:52;;;;;;;0.93;0.70;;;10.70;99.90;;;;;;5046785;28;20479;-79
2021/11/03 00:11:21;;;;;;;0.90;0.90;;;10.50;99.90;;;;;;5040066;28;20438;-80
2021/11/03 00:13:50;;;;;;;0.83;0.80;;;10.40;99.90;;;;;;5039443;28;20454;-79
2021/11/03 00:16:19;;;;;;;1.17;0.80;;;10.50;99.90;;;;;;5043645;28;20447;-80
2021/11/03 00:18:47;;;;;;;0.93;0.90;;;10.60;99.90;;;;;;5044196;28;21205;-80
2021/11/03 00:21:16;;;;;;;0.60;0.60;;;10.60;99.90;;;;;;5048390;28;20486;-80
2021/11/03 00:23:45;;;;;;;3.00;0.87;;;10.70;99.90;;;;;;5047666;28;20502;-81
2021/11/03 00:26:14;;;;;;;2.40;0.83;;;10.60;99.90;;;;;;5044434;28;20452;-80
2021/11/03 00:28:42;;;;;;;0.80;0.70;;;10.70;99.90;;;;;;5038553;28;21063;-80
2021/11/03 00:31:12;;;;;;;0.97;0.70;;;10.70;99.90;;;;;;5041368;28;20505;-80
2021/11/03 00:33:40;;;;;;;0.60;0.60;;;10.80;99.90;;;;;;5039173;28;20458;-80
2021/11/03 00:36:09;;;;;;;0.87;0.70;;;10.80;99.90;;;;;;5050265;28;20459;-81
2021/11/03 00:38:38;;;;;;;2.43;0.90;;;10.90;99.90;;;;;;5045719;28;20524;-80
2021/11/03 00:41:07;;;;;;;0.83;0.70;;;11.00;99.90;;;;;;5048629;28;20467;-80
2021/11/03 00:43:36;;;;;;;1.20;0.63;;;11.00;99.90;;;;;;5045690;28;20447;-82
2021/11/03 00:46:05;;;;;;;0.70;0.70;;;10.90;99.90;;;;;;5047295;28;21186;-81
2021/11/03 00:48:35;;;;;;;2.33;0.67;;;11.00;99.90;;;;;;5049656;28;20536;-81
2021/11/03 00:51:03;;;;;;;0.70;0.60;;;11.00;99.90;;;;;;5050281;28;20800;-81
2021/11/03 00:53:32;;;;;;;0.80;0.70;;;10.90;99.90;;;;;;5047629;28;20481;-80
2021/11/03 00:56:00;;;;;;;0.90;0.90;;;10.80;99.90;;;;;;5043343;28;20461;-80
2021/11/03 00:58:28;;;;;;;0.73;0.73;;;10.70;99.90;;;;;;5044570;28;20482;-80
2021/11/03 01:00:56;;;;;;;0.90;0.90;;;10.70;99.90;;;;;;5042416;28;20450;-80
2021/11/03 01:03:24;;;;;;;0.80;0.80;;;10.40;99.90;;;;;;5045878;28;20958;-79
2021/11/03 01:05:54;;;;;;;1.30;1.20;;;10.50;99.90;;;;;;5036976;28;20466;-80
2021/11/03 01:08:22;;;;;;;1.00;1.00;;;10.60;99.90;;;;;;5047606;28;20510;-80
2021/11/03 01:10:53;;;;;;;1.10;0.67;;;10.50;99.90;;;;;;5046610;28;20837;-81
2021/11/03 01:13:24;;;;;;;2.13;0.97;;;10.70;99.90;;;;;;5047524;28;20478;-82
2021/11/03 01:15:52;;;;;;;1.10;1.00;;;10.60;99.90;;;;;;5043355;28;20990;-81
2021/11/03 01:18:20;;;;;;;0.80;0.80;;;10.70;99.90;;;;;;5046167;28;20501;-82
2021/11/03 01:20:49;;;;;;;1.03;1.00;;;10.80;99.90;;;;;;5049246;28;20457;-81
2021/11/03 01:23:19;;;;;;;3.27;1.00;;;10.80;99.90;;;;;;5044835;28;20838;-81
2021/11/03 01:25:48;;;;;;;0.87;0.87;;;10.70;99.90;;;;;;5051104;28;20476;-80
2021/11/03 01:28:17;;;;;;;0.60;0.60;;;10.80;99.90;;;;;;5048714;28;20496;-81
2021/11/03 01:30:46;;;;;;;2.13;0.90;;;10.60;99.90;;;;;;5046887;28;20941;-80
2021/11/03 01:33:15;;;;;;;1.20;1.10;;;10.50;99.90;;;;;;5044118;28;20460;-81
2021/11/03 01:35:44;;;;;;;1.23;0.80;;;10.50;99.90;;;;;;5048433;28;20463;-80
2021/11/03 01:38:13;;;;;;;1.10;0.80;;;10.20;99.90;;;;;;5047635;28;20531;-80
2021/11/03 01:40:46;;;;;;;2.07;0.90;;;10.10;99.90;;;;;;5045728;28;20471;-81
2021/11/03 01:43:18;;;;;;;1.00;0.93;;;10.20;99.90;;;;;;5046527;28;20474;-81
2021/11/03 01:45:48;;;;;;;1.13;1.03;;;10.00;99.90;;;;;;5046358;28;20480;-81
2021/11/03 01:48:16;;;;;;;6.57;1.03;;;10.00;99.90;;;;;;5047109;28;20539;-81
2021/11/03 01:50:51;;;;;;;1.33;1.10;;;9.80;1.00;;;;;;5049619;28;20454;-81
2021/11/03 01:53:23;;;;;;;1.20;1.10;;;9.90;1.00;;;;;;5040118;28;20454;-80
2021/11/03 01:55:58;;;;;;;1.07;0.97;;;10.20;1.00;;;;;;5046336;28;20791;-81
2021/11/03 01:58:34;;;;;;;1.20;1.10;;;10.40;1.00;;;;;;5043757;28;20481;-81
2021/11/03 02:01:03;;;;;;;1.97;1.23;;;10.20;1.00;;;;;;5049431;28;20485;-81
2021/11/03 02:03:33;;;;;;;1.27;0.90;;;10.20;1.00;;;;;;5049047;28;20486;-82
2021/11/03 02:06:05;;;;;;;1.00;0.90;;;10.40;1.00;;;;;;5049004;28;20460;-81
2021/11/03 02:08:38;;;;;;;1.57;1.00;;;10.50;1.00;;;;;;5049996;28;20557;-81
2021/11/03 02:11:07;;;;;;;0.80;0.80;;;10.60;1.00;;;;;;5042759;28;20975;-81
2021/11/03 02:13:37;;;;;;;1.00;0.97;;;10.70;1.00;;;;;;5040765;28;20508;-82
2021/11/03 02:16:06;;;;;;;2.73;1.00;;;10.70;1.00;;;;;;5047069;28;20459;-80
2021/11/03 02:18:36;;;;;;;1.33;1.10;;;10.80;99.90;;;;;;5054609;28;20494;-81
2021/11/03 02:21:06;;;;;;;0.80;0.80;;;10.90;99.90;;;;;;5049341;28;20447;-81
2021/11/03 02:23:39;;;;;;;0.70;0.70;;;10.80;99.90;;;;;;5055679;28;20732;-80
2021/11/03 02:26:12;;;;;;;0.70;0.70;;;10.80;99.90;;;;;;5048304;28;20476;-81
2021/11/03 02:28:43;;;;;;;0.80;0.80;;;10.80;99.90;;;;;;5043095;28;20464;-81
2021/11/03 02:31:28;;;;;;;1.40;0.90;;;10.80;99.90;;;;;;5047462;28;20457;-82
2021/11/03 02:33:57;;;;;;;1.00;0.97;;;10.30;1.00;;;;;;5043162;28;20476;-81
2021/11/03 02:36:25;;;;;;;0.90;0.80;;;10.20;1.00;;;;;;5049651;28;20464;-80
2021/11/03 02:38:53;;;;;;;1.00;0.90;;;10.00;53.90;;;;;;5048969;28;20482;-81
2021/11/03 02:41:26;;;;;;;1.43;0.87;;;10.20;1.00;;;;;;5052773;28;20497;-81
2021/11/03 02:44:00;;;;;;;0.83;0.80;;;10.40;1.00;;;;;;5049859;28;20480;-81
2021/11/03 02:46:28;;;;;;;1.37;0.97;;;10.40;1.00;;;;;;5043187;28;20451;-81
2021/11/03 02:48:55;;;;;;;1.20;0.80;;;10.40;1.00;;;;;;5067005;28;20479;-81
2021/11/03 02:51:33;;;;;;;0.80;0.80;;;10.50;1.00;;;;;;5041770;28;20456;-81
2021/11/03 02:54:05;;;;;;;1.20;1.00;;;10.50;1.00;;;;;;5049412;28;20978;-81
2021/11/03 02:56:38;;;;;;;1.17;0.90;;;10.50;1.00;;;;;;5047026;28;20504;-81
2021/11/03 02:59:08;;;;;;;0.90;0.80;;;10.60;1.00;;;;;;5052446;28;20489;-81
2021/11/03 03:01:38;;;;;;;1.90;1.30;;;10.70;1.00;;;;;;5040510;28;20453;-81
2021/11/03 03:04:09;;;;;;;1.13;1.00;;;10.70;1.00;;;;;;5038557;28;21250;-81
2021/11/03 03:06:38;;;;;;;0.83;0.80;;;10.70;1.00;;;;;;5047927;28;20474;-81
2021/11/03 03:09:07;;;;;;;1.00;0.90;;;10.60;1.00;;;;;;5038827;28;20529;-81
2021/11/03 03:11:40;;;;;;;1.43;1.07;;;10.70;1.00;;;;;;5046362;28;20467;-81
2021/11/03 03:14:09;;;;;;;0.70;0.70;;;10.60;1.00;;;;;;5043771;28;20452;-80
2021/11/03 03:16:37;;;;;;;2.30;1.00;;;10.60;1.00;;;;;;5045663;28;20469;-81
2021/11/03 03:19:06;;;;;;;1.40;0.80;;;10.50;1.00;;;;;;5045078;28;20482;-81
2021/11/03 03:21:34;;;;;;;2.20;1.20;;;10.30;1.00;;;;;;5048787;28;20462;-81
2021/11/03 03:24:05;;;;;;;1.60;1.10;;;10.30;1.00;;;;;;5049992;28;20493;-81
2021/11/03 03:26:33;;;;;;;1.80;1.10;;;10.40;1.00;;;;;;5042004;28;20486;-81
2021/11/03 03:29:03;;;;;;;1.27;0.80;;;10.50;1.00;;;;;;5037226;28;20483;-81
2021/11/03 03:31:32;;;;;;;0.87;0.87;;;10.50;1.00;;;;;;5044872;28;20463;-81
2021/11/03 03:34:02;;;;;;;0.80;0.70;;;10.50;1.00;;;;;;5040803;28;20529;-81
2021/11/03 03:36:31;;;;;;;1.70;1.60;;;10.50;1.00;;;;;;5043363;28;20525;-81
2021/11/03 03:38:59;;;;;;;1.23;1.10;;;10.60;1.00;;;;;;5043709;28;20475;-81
2021/11/03 03:41:28;;;;;;;0.80;0.80;;;10.60;1.00;;;;;;5043048;28;20466;-80
2021/11/03 03:43:57;;;;;;;1.10;1.10;;;10.60;1.00;;;;;;5045457;28;20483;-83
2021/11/03 03:46:27;;;;;;;1.10;0.90;;;10.60;1.00;;;;;;5041535;28;20442;-81
2021/11/03 03:48:55;;;;;;;0.80;0.80;;;10.60;1.00;;;;;;5039522;28;20478;-81
2021/11/03 03:51:24;;;;;;;0.80;0.80;;;10.50;1.00;;;;;;5039823;28;20454;-81
2021/11/03 03:53:53;;;;;;;2.60;1.00;;;10.50;1.00;;;;;;5042090;28;20464;-81
2021/11/03 03:56:22;;;;;;;2.90;1.00;;;10.60;1.00;;;;;;5046040;28;20454;-82
2021/11/03 03:58:51;;;;;;;1.33;0.97;;;10.60;1.00;;;;;;5049226;28;20474;-81
2021/11/03 04:01:21;;;;;;;0.90;0.80;;;10.30;1.00;;;;;;5047908;28;20466;-80
2021/11/03 04:03:54;;;;;;;1.47;0.90;;;10.30;1.00;;;;;;5046118;28;20482;-80
2021/11/03 04:06:23;;;;;;;0.80;0.80;;;10.20;1.00;;;;;;5048509;28;20467;-81
2021/11/03 04:08:51;;;;;;;1.80;1.13;;;10.40;1.00;;;;;;5046043;28;20475;-79
2021/11/03 04:11:19;;;;;;;1.17;0.90;;;10.50;1.00;;;;;;5047709;28;20455;-80
2021/11/03 04:13:48;;;;;;;1.10;1.00;;;10.50;1.00;;;;;;5051587;28;20466;-81
2021/11/03 04:16:16;;;;;;;0.83;0.83;;;10.50;1.00;;;;;;5043879;28;20462;-81
2021/11/03 04:18:44;;;;;;;1.47;0.90;;;10.50;1.00;;;;;;5042127;28;20480;-80
2021/11/03 04:21:14;;;;;;;1.10;1.00;;;10.60;1.00;;;;;;5042822;28;20509;-81
2021/11/03 04:23:42;;;;;;;0.80;0.80;;;10.50;1.00;;;;;;5048272;28;20467;-82
2021/11/03 04:26:20;;;;;;;1.67;0.87;;;10.50;1.00;;;;;;5048144;28;20863;-81
2021/11/03 04:28:48;;;;;;;1.10;0.80;;;10.50;1.00;;;;;;5045236;28;20557;-82
2021/11/03 04:31:16;;;;;;;0.80;0.80;;;10.50;1.00;;;;;;5043852;28;20463;-82
2021/11/03 04:33:44;;;;;;;0.70;0.70;;;10.60;1.00;;;;;;5047464;28;20897;-80
2021/11/03 04:36:14;;;;;;;0.90;0.70;;;10.40;1.00;;;;;;5039975;28;20940;-81
2021/11/03 04:38:42;;;;;;;1.03;1.03;;;10.40;1.00;;;;;;5041350;28;20910;-82
2021/11/03 04:41:10;;;;;;;1.53;1.03;;;10.50;1.00;;;;;;5045443;28;20464;-81
2021/11/03 04:43:38;;;;;;;3.17;1.00;;;10.40;1.00;;;;;;5045996;28;20479;-81
2021/11/03 04:46:06;;;;;;;0.83;0.83;;;10.50;1.00;;;;;;5051290;28;20457;-81
2021/11/03 04:48:35;;;;;;;0.60;0.60;;;10.60;1.00;;;;;;5048413;28;20463;-80
2021/11/03 04:51:03;;;;;;;1.23;0.87;;;10.40;1.00;;;;;;5045695;28;20448;-81
2021/11/03 04:53:33;;;;;;;0.70;0.70;;;10.40;1.00;;;;;;5049963;28;20461;-81
2021/11/03 04:56:05;;;;;;;0.70;0.70;;;10.50;1.00;;;;;;5045258;28;20450;-80
2021/11/03 04:58:33;;;;;;;1.00;1.00;;;10.50;1.00;;;;;;5042131;28;20925;-81
2021/11/03 05:01:02;;;;;;;0.80;0.80;;;10.40;1.00;;;;;;5044509;28;20508;-80
2021/11/03 05:03:31;;;;;;;0.80;0.80;;;10.60;1.00;;;;;;5051633;28;20487;-80
2021/11/03 05:06:01;;;;;;;1.43;0.70;;;10.40;1.00;;;;;;5046596;28;20474;-81
2021/11/03 05:08:30;;;;;;;1.00;0.50;;;10.40;1.00;;;;;;5054008;28;20508;-81
2021/11/03 05:11:00;;;;;;;0.70;0.60;;;10.40;1.00;;;;;;5048311;28;20505;-81
2021/11/03 05:13:28;;;;;;;0.80;0.70;;;10.30;1.00;;;;;;5042874;28;20582;-80
2021/11/03 05:15:56;;;;;;;0.70;0.70;;;10.30;1.00;;;;;;5049908;28;20461;-81
2021/11/03 05:18:24;;;;;;;1.43;0.80;;;10.20;1.00;;;;;;5048806;28;20475;-81
2021/11/03 05:20:52;;;;;;;1.17;0.90;;;10.20;1.00;;;;;;5047415;28;20465;-81
2021/11/03 05:23:24;;;;;;;0.80;0.80;;;10.30;1.00;;;;;;5050195;28;20484;-80
2021/11/03 05:25:52;;;;;;;1.13;1.10;;;10.40;1.00;;;;;;5048067;28;20870;-81
2021/11/03 05:28:23;;;;;;;0.70;0.70;;;10.40;1.00;;;;;;5045848;28;21037;-81
2021/11/03 05:30:52;;;;;;;0.60;0.60;;;10.30;1.00;;;;;;5043702;28;20964;-81
2021/11/03 05:33:20;;;;;;;1.17;0.80;;;10.20;1.00;;;;;;5036512;28;20453;-82
2021/11/03 05:35:48;;;;;;;0.70;0.70;;;10.40;1.00;;;;;;5043103;28;20521;-80
2021/11/03 05:38:17;;;;;;;0.70;0.70;;;10.40;1.00;;;;;;5046770;28;20484;-80
2021/11/03 05:40:45;;;;;;;0.70;0.70;;;10.30;1.00;;;;;;5041864;28;20472;-81
2021/11/03 05:43:14;;;;;;;0.70;0.70;;;10.30;1.00;;;;;;5042351;28;20456;-81
2021/11/03 05:45:43;;;;;;;1.50;0.80;;;10.40;1.00;;;;;;5037885;28;20592;-81
2021/11/03 05:48:13;;;;;;;1.20;0.90;;;10.30;1.00;;;;;;5042707;28;20512;-80
2021/11/03 05:50:41;;;;;;;0.80;0.80;;;10.30;1.00;;;;;;5048414;28;21271;-80
2021/11/03 05:53:09;;;;;;;0.70;0.70;;;10.40;1.00;;;;;;5059259;28;20454;-82
2021/11/03 05:55:39;;;;;;;0.70;0.70;;;10.50;1.00;;;;;;5042727;28;20951;-81
2021/11/03 05:58:07;;;;;;;0.80;0.80;;;10.50;1.00;;;;;;5045691;28;20479;-81
2021/11/03 06:00:38;;;;;;;1.10;1.00;;;10.60;1.00;;;;;;5046653;28;20469;-80
2021/11/03 06:03:08;;;;;;;0.67;0.67;;;10.60;1.00;;;;;;5041639;28;20459;-81
2021/11/03 06:05:36;;;;;;;0.60;0.60;;;10.70;1.00;;;;;;5037188;28;20483;-81
2021/11/03 06:08:07;;;;;;;0.70;0.70;;;10.70;99.90;;;;;;5041143;28;20462;-82
2021/11/03 06:10:40;;;;;;;0.70;0.70;;;10.60;99.90;;;;;;5043098;28;20455;-81
2021/11/03 06:13:10;;;;;;;0.70;0.70;;;10.70;99.90;;;;;;5043885;28;20458;-80
2021/11/03 06:15:39;;;;;;;0.60;0.60;;;10.70;99.90;;;;;;5036424;28;20457;-81
2021/11/03 06:18:09;;;;;;;0.60;0.60;;;10.70;99.90;;;;;;5040091;28;20492;-80
2021/11/03 06:20:37;;;;;;;0.60;0.60;;;10.70;99.90;;;;;;5043096;28;20479;-80
2021/11/03 06:23:06;;;;;;;0.80;0.63;;;10.70;99.90;;;;;;5037549;28;20946;-79
2021/11/03 06:25:35;;;;;;;2.80;0.70;;;10.70;99.90;;;;;;5035680;28;20486;-80
2021/11/03 06:28:05;;;;;;;0.97;0.63;;;10.70;99.90;;;;;;5042597;28;20458;-80
2021/11/03 06:30:37;;;;;;;0.90;0.77;;;10.60;99.90;;;;;;5046966;28;20464;-80
2021/11/03 06:33:05;;;;;;;2.20;0.80;;;10.60;99.90;;;;;;5043658;28;20466;-79
2021/11/03 06:35:38;;;;;;;0.70;0.70;;;10.60;99.90;;;;;;5037371;28;20456;-80
2021/11/03 06:38:09;;;;;;;1.93;0.70;;;10.70;99.90;;;;;;5043484;28;20546;-79
2021/11/03 06:40:37;;;;;;;0.50;0.50;;;10.70;99.90;;;;;;5040021;28;20898;-80
2021/11/03 06:43:06;;;;;;;0.63;0.63;;;10.70;99.90;;;;;;5037132;28;20461;-79
2021/11/03 06:45:35;;;;;;;1.10;1.00;;;10.50;99.90;;;;;;5037912;28;20464;-80
2021/11/03 06:48:03;;;;;;;0.80;0.80;;;10.60;99.90;;;;;;5043471;28;20565;-79
2021/11/03 06:50:34;;;;;;;0.85;0.70;;;10.60;99.90;;;;;;5038565;28;20456;-79
2021/11/03 06:53:08;;;;;;;0.70;0.70;;;10.40;99.90;;;;;;5044647;28;21059;-78
2021/11/03 06:55:38;;;;;;;2.03;0.70;;;10.30;99.90;;;;;;5039445;28;20447;-79
2021/11/03 06:58:06;;;;;;;0.60;0.60;;;10.50;99.90;;;;;;5045735;28;20472;-80
2021/11/03 07:00:37;;;;;;;0.80;0.70;;;10.60;99.90;;;;;;5046467;28;20459;-79
2021/11/03 07:03:06;;;;;;;0.70;0.70;;;10.70;99.90;;;;;;5042182;28;20509;-79
2021/11/03 07:05:35;;;;;;;1.47;1.37;;;10.80;99.90;;;;;;5037929;28;20481;-78
2021/11/03 07:08:06;;;;;;;0.90;0.77;;;10.70;99.90;;;;;;5039658;28;20465;-78
2021/11/03 07:10:39;;;;;;;0.83;0.83;;;10.70;99.90;;;;;;5041018;28;20454;-78
2021/11/03 07:13:09;;;;;;;0.80;0.80;;;10.70;99.90;;;;;;5031157;28;20486;-78
2021/11/03 07:15:38;;;;;;;1.07;0.70;;;10.70;99.90;;;;;;5056911;28;20470;-79
2021/11/03 07:18:13;;;;;;;0.80;0.77;;;10.80;99.90;;;;;;5046414;28;21004;-79
2021/11/03 07:20:42;;;;;;;0.90;0.80;;;10.80;99.90;;;;;;5046630;28;20451;-79
2021/11/03 07:23:14;;;;;;;1.30;0.60;;;10.80;99.90;;;;;;5040059;28;20453;-79
2021/11/03 07:25:42;;;;;;;0.83;0.53;;;10.90;99.90;;;;;;5044371;28;20517;-79
2021/11/03 07:28:11;;;;;;;0.60;0.60;;;10.90;99.90;;;;;;5043483;28;21092;-79
2021/11/03 07:30:41;;;;;;;0.77;0.70;;;10.80;99.90;;;;;;5036805;28;20997;-78
2021/11/03 07:33:11;;;;;;;0.70;0.70;;;10.70;99.90;;;;;;5039920;28;20467;-79
2021/11/03 07:35:39;;;;;;;0.80;0.60;;;10.70;99.90;;;;;;5043124;28;20446;-79
2021/11/03 07:38:09;;;;;;;1.10;0.60;;;10.80;99.90;;;;;;5046512;28;20476;-79
2021/11/03 07:40:41;;;;;;;0.77;0.50;;;10.90;99.90;;;;;;5039681;28;20456;-79
2021/11/03 07:43:12;;;;;;;0.50;0.50;;;11.00;99.90;;;;;;5042999;28;20475;-79
2021/11/03 07:45:40;;;;;;;0.43;0.40;;;11.00;99.90;;;;;;5040793;28;20483;-80
2021/11/03 07:48:10;;;;;;;0.60;0.60;;;11.00;99.90;;;;;;5036799;28;20536;-80
2021/11/03 07:50:47;;;;;;;0.50;0.50;;;11.00;99.90;;;;;;5044440;28;20970;-80
2021/11/03 07:53:17;;;;;;;1.73;0.60;;;10.90;99.90;;;;;;5042266;28;20976;-79
2021/11/03 07:55:50;;;;;;;0.53;0.50;;;10.90;99.90;;;;;;5043829;28;20980;-79
2021/11/03 07:58:21;;;;;;;0.50;0.50;;;10.90;99.90;;;;;;5038368;28;20482;-79
2021/11/03 08:00:51;;;;;;;1.20;0.60;;;10.90;99.90;;;;;;5037783;28;20974;-80
2021/11/03 08:03:19;;;;;;;0.60;0.50;;;11.00;99.90;;;;;;5045926;28;20460;-81
2021/11/03 08:05:51;;;;;;;0.43;0.43;;;11.00;99.90;;;;;;5045557;28;20491;-81
2021/11/03 08:08:23;;;;;;;0.80;0.63;;;11.10;99.90;;;;;;5041767;28;20497;-81
2021/11/03 08:10:54;;;;;;;1.50;0.50;;;11.20;99.90;;;;;;5042304;28;20460;-81
2021/11/03 08:13:26;;;;;;;0.60;0.60;;;11.30;99.90;;;;;;5044088;28;20448;-82
2021/11/03 08:15:58;;;;;;;0.80;0.50;;;11.40;99.90;;;;;;5047928;28;20448;-82
2021/11/03 08:18:30;;;;;;;0.77;0.60;;;11.40;99.90;;;;;;5030787;28;20554;-81
2021/11/03 08:20:59;;;;;;;1.20;0.60;;;11.40;99.90;;;;;;5038359;28;20585;-82
2021/11/03 08:23:27;;;;;;;0.60;0.60;;;11.40;99.90;;;;;;5048247;28;20475;-78
2021/11/03 08:25:57;;;;;;;0.63;0.63;;;11.40;99.90;;;;;;5038769;28;20488;-81
2021/11/03 08:28:26;;;;;;;0.50;0.50;;;11.50;99.90;;;;;;5043867;28;20572;-81
2021/11/03 08:30:56;;;;;;;1.67;0.60;;;11.50;99.90;;;;;;5037609;28;21096;-81
2021/11/03 08:33:29;;;;;;;0.60;0.60;;;11.50;99.90;;;;;;5037569;28;20498;-81
2021/11/03 08:35:59;;;;;;;0.80;0.70;;;11.50;99.90;;;;;;5038331;28;20463;-81
2021/11/03 08:38:50;;;;;;;0.80;0.80;;;11.50;99.90;;;;;;5046031;28;20480;-81
2021/11/03 08:41:20;;;;;;;0.83;0.83;;;11.50;99.90;;;;;;5041797;28;20459;-79
2021/11/03 08:43:50;;;;;;;1.87;1.00;;;11.50;99.90;;;;;;5045924;28;20534;-80
2021/11/03 08:46:21;;;;;;;1.00;0.80;;;11.50;99.90;;;;;;5048988;28;20472;-80
2021/11/03 08:48:51;;;;;;;1.30;0.90;;;11.50;99.90;;;;;;5057439;28;20514;-80
2021/11/03 08:51:20;;;;;;;1.00;0.70;;;11.50;99.90;;;;;;5043604;28;20459;-78
2021/11/03 08:53:53;;;;;;;1.00;0.90;;;11.40;99.90;;;;;;5043799;28;20452;-79
2021/11/03 08:56:23;;;;;;;0.80;0.80;;;11.50;99.90;;;;;;5057567;28;20454;-79
2021/11/03 08:58:52;;;;;;;1.00;0.80;;;11.50;99.90;;;;;;5053369;28;20487;-79
2021/11/03 09:01:22;;;;;;;2.87;1.10;;;11.60;99.90;;;;;;5053371;28;20573;-79
2021/11/03 09:03:51;;;;;;;0.97;0.80;;;11.60;99.90;;;;;;5054393;28;20458;-81
2021/11/03 09:06:20;;;;;;;1.23;1.13;;;11.60;99.90;;;;;;5048475;28;20486;-82
2021/11/03 09:08:50;;;;;;;0.90;0.90;;;11.60;99.90;;;;;;5046788;28;20511;-81
2021/11/03 09:11:20;;;;;;;1.10;0.90;;;11.60;99.90;;;;;;5047667;28;20459;-80
2021/11/03 09:13:50;;;;;;;1.47;1.37;;;11.70;99.90;;;;;;5040084;28;20456;-80
2021/11/03 09:16:19;;;;;;;2.13;1.20;;;11.70;99.90;;;;;;5043781;28;20463;-81
2021/11/03 09:18:48;;;;;;;1.13;1.10;;;11.70;99.90;;;;;;5049977;28;20504;-80
2021/11/03 09:21:16;;;;;;;3.23;3.03;;;11.80;99.90;;;;;;5052708;28;20455;-79
2021/11/03 09:23:47;;;;;;;1.37;1.10;;;11.80;99.90;;;;;;5061874;28;20440;-80
2021/11/03 09:26:16;;;;;;;1.50;1.30;;;11.80;99.90;;;;;;5052372;28;20471;-80
2021/11/03 09:28:45;;;;;;;1.17;1.07;;;11.90;99.90;;;;;;5052431;28;20546;-80
2021/11/03 09:31:16;;;;;;;2.63;1.27;;;11.80;99.90;;;;;;5047539;28;20456;-79
2021/11/03 09:33:44;;;;;;;2.37;1.10;;;11.60;99.90;;;;;;5040026;28;20462;-80
2021/11/03 09:36:17;;;;;;;1.33;1.23;;;11.60;99.90;;;;;;5045709;28;20467;-80
2021/11/03 09:38:46;;;;;;;1.37;1.20;;;11.70;99.90;;;;;;5042418;28;20514;-80
2021/11/03 09:41:21;;;;;;;1.43;1.33;;;11.80;99.90;;;;;;5046459;28;20816;-81
2021/11/03 09:43:53;;;;;;;1.83;1.20;;;11.80;99.90;;;;;;5052301;28;20451;-80
2021/11/03 09:46:29;;;;;;;1.33;1.23;;;11.80;99.90;;;;;;5044658;28;20468;-80
2021/11/03 09:49:05;;;;;;;1.17;1.00;;;11.90;99.90;;;;;;5051726;28;20845;-81
2021/11/03 09:51:35;;;;;;;2.60;1.17;;;11.90;99.90;;;;;;5049829;28;20969;-81
2021/11/03 09:54:08;;;;;;;1.10;1.00;;;11.90;99.90;;;;;;5049642;28;20492;-81
2021/11/03 09:56:39;;;;;;;2.90;1.00;;;11.70;99.90;;;;;;5047443;28;20455;-80
2021/11/03 09:59:27;;;;;;;0.97;0.97;;;11.70;99.90;;;;;;5045178;28;21019;-81
2021/11/03 10:02:04;;;;;;;1.00;0.70;;;11.60;99.90;;;;;;5042798;28;21163;-81
2021/11/03 10:04:49;;;;;;;0.80;0.80;;;11.70;99.90;;;;;;5046847;28;20444;-82
2021/11/03 10:07:27;;;;;;;0.90;0.90;;;11.70;99.90;;;;;;5049874;28;20518;-81
2021/11/03 10:09:55;;;;;;;1.60;0.90;;;11.90;99.90;;;;;;5046542;28;20824;-81
2021/11/03 10:12:25;;;;;;;1.00;0.80;;;11.90;99.90;;;;;;5047438;28;20972;-81
2021/11/03 10:14:57;;;;;;;1.30;1.20;;;11.70;99.90;;;;;;5045904;28;20533;-81
2021/11/03 10:17:29;;;;;;;1.47;0.93;;;11.60;99.90;;;;;;5048132;28;20444;-81
2021/11/03 10:19:58;;;;;;;0.80;0.80;;;11.70;99.90;;;;;;5043165;28;20533;-82
2021/11/03 10:22:34;;;;;;;1.10;1.00;;;11.80;99.90;;;;;;5046197;28;20484;-82
2021/11/03 10:25:25;;;;;;;2.33;1.30;;;11.90;99.90;;;;;;5046101;28;20521;-81
2021/11/03 10:28:02;;;;;;;2.20;1.10;;;11.80;99.90;;;;;;5045940;28;20831;-82
2021/11/03 10:30:37;;;;;;;1.00;1.00;;;11.70;99.90;;;;;;5043475;28;20449;-82
2021/11/03 10:33:19;;;;;;;1.07;0.90;;;11.70;99.90;;;;;;5058893;28;20460;-80
2021/11/03 10:35:56;;;;;;;1.23;1.03;;;11.70;99.90;;;;;;5042500;28;20455;-80
2021/11/03 10:38:27;;;;;;;1.30;1.00;;;11.60;99.90;;;;;;5038429;28;20928;-80
2021/11/03 10:41:01;;;;;;;1.30;0.80;;;11.60;99.90;;;;;;5035859;28;20456;-80
2021/11/03 10:43:33;;;;;;;1.07;0.97;;;11.60;99.90;;;;;;5048149;28;20445;-80
2021/11/03 10:46:14;;;;;;;1.57;1.10;;;11.70;99.90;;;;;;5040581;28;20546;-80
2021/11/03 10:49:13;;;;;;;4.47;1.10;;;11.70;99.90;;;;;;5044234;28;20483;-80
2021/11/03 10:51:43;;;;;;;1.00;0.90;;;11.70;99.90;;;;;;5042166;28;20478;-79
2021/11/03 10:54:15;;;;;;;1.37;0.90;;;11.60;99.90;;;;;;5050220;28;20490;-80
2021/11/03 10:56:52;;;;;;;1.23;1.00;;;11.70;99.90;;;;;;5051336;28;20453;-80
2021/11/03 10:59:28;;;;;;;5.53;0.80;;;11.80;99.90;;;;;;5046125;28;20481;-80
2021/11/03 11:02:06;;;;;;;1.10;0.80;;;11.60;99.90;;;;;;5035335;28;20535;-80
2021/11/03 11:04:38;;;;;;;1.30;0.70;;;11.60;99.90;;;;;;5033791;28;20496;-80
2021/11/03 11:07:18;;;;;;;1.43;0.93;;;11.80;99.90;;;;;;5040690;28;20476;-80
2021/11/03 11:09:51;;;;;;;0.80;0.80;;;11.80;99.90;;;;;;5046211;28;20485;-80
2021/11/03 11:12:24;;;;;;;0.80;0.73;;;11.80;99.90;;;;;;5048111;28;20467;-79
2021/11/03 11:14:56;;;;;;;1.87;0.80;;;11.90;99.90;;;;;;5037241;28;20458;-80
2021/11/03 11:17:31;;;;;;;0.80;0.80;;;11.90;99.90;;;;;;5044968;28;20455;-78
2021/11/03 11:20:11;;;;;;;1.10;0.80;;;11.80;99.90;;;;;;5047241;28;20479;-80
2021/11/03 11:23:02;;;;;;;1.53;0.80;;;11.90;99.90;;;;;;5042439;28;20473;-79
2021/11/03 11:25:38;;;;;;;0.60;0.60;;;12.00;99.90;;;;;;5039087;28;20463;-78
2021/11/03 11:28:19;;;;;;;0.60;0.60;;;12.10;99.90;;;;;;5047265;28;20533;-79
2021/11/03 11:31:01;;;;;;;0.60;0.60;;;12.10;99.90;;;;;;5038137;28;20456;-79
2021/11/03 11:33:31;;;;;;;1.10;0.87;;;12.20;99.90;;;;;;5046176;28;20514;-79
2021/11/03 11:36:20;;;;;;;0.90;0.90;;;12.10;99.90;;;;;;5043160;28;20473;-79
2021/11/03 11:39:03;;;;;;;1.10;0.70;;;12.00;99.90;;;;;;5049153;28;21032;-79
2021/11/03 11:41:35;;;;;;;1.30;0.87;;;12.10;99.90;;;;;;5030932;28;20456;-78
2021/11/03 11:44:07;;;;;;;2.00;0.80;;;12.20;99.90;;;;;;5042355;28;20466;-79
2021/11/03 11:46:37;;;;;;;1.00;0.90;;;12.20;99.90;;;;;;5044379;28;20501;-79
2021/11/03 11:49:21;;;;;;;0.90;0.87;;;12.20;99.90;;;;;;5049105;28;20463;-79
2021/11/03 11:51:54;;;;;;;0.83;0.73;;;12.30;99.90;;;;;;5044293;28;20451;-79
2021/11/03 11:54:30;;;;;;;1.77;1.30;;;12.30;99.90;;;;;;5038570;28;20451;-78
2021/11/03 11:57:24;;;;;;;1.40;1.30;;;12.20;99.90;;;;;;5046593;28;20455;-79
2021/11/03 12:00:18;;;;;;;0.90;0.70;;;12.20;99.90;;;;;;5036566;28;20477;-80
2021/11/03 12:03:00;;;;;;;1.00;1.00;;;12.30;99.90;;;;;;5045077;28;20963;-78
2021/11/03 12:05:56;;;;;;;0.83;0.80;;;12.30;99.90;;;;;;5042757;28;20463;-79
2021/11/03 12:08:45;;;;;;;1.03;0.80;;;12.30;99.90;;;;;;5046681;28;20909;-79
2021/11/03 12:11:19;;;;;;;1.07;1.00;;;12.40;99.90;;;;;;5041055;28;21074;-79
2021/11/03 12:14:16;;;;;;;1.57;0.80;;;12.40;99.90;;;;;;5046521;28;20455;-78
2021/11/03 12:17:15;;;;;;;3.03;0.83;;;12.30;99.90;;;;;;5042223;28;20481;-80
2021/11/03 12:19:51;;;;;;;0.60;0.60;;;12.20;99.90;;;;;;5039724;28;20495;-80
2021/11/03 12:22:36;;;;;;;0.80;0.80;;;12.20;99.90;;;;;;5045511;28;20458;-80
2021/11/03 12:25:38;;;;;;;1.37;0.80;;;12.20;99.90;;;;;;5048685;28;20478;-80
2021/11/03 12:28:47;;;;;;;2.20;1.00;;;12.30;99.90;;;;;;5041620;28;20482;-81
2021/11/03 12:31:20;;;;;;;1.00;0.90;;;12.30;99.90;;;;;;4984244;28;20464;-81
2021/11/03 12:34:25;;;;;;;1.23;0.60;;;12.30;99.90;;;;;;4981639;28;20525;-82
2021/11/03 12:37:25;;;;;;;1.80;0.80;;;12.40;99.90;;;;;;5040470;28;20471;-81
2021/11/03 12:40:09;;;;;;;0.70;0.70;;;12.30;99.90;;;;;;5050640;28;21172;-81
2021/11/03 12:42:53;;;;;;;1.30;0.70;;;12.00;99.90;;;;;;5031853;28;20470;-80
2021/11/03 12:45:24;;;;;;;0.60;0.60;;;12.00;1.00;;;;;;5048374;28;20537;-81
2021/11/03 12:47:55;;;;;;;1.23;0.90;;;11.80;1.00;;;;;;5048651;28;20527;-82
2021/11/03 12:50:27;;;;;;;1.33;1.10;;;11.80;1.00;;;;;;5048051;28;20464;-81
2021/11/03 12:53:08;;;;;;;2.27;1.43;;;11.90;1.00;;;;;;5049531;28;20459;-82
2021/11/03 12:55:42;;;;;;;3.30;2.00;;;12.00;1.00;;;;;;5047217;28;20453;-81
2021/11/03 12:58:32;;;;;;;1.60;0.90;;;12.00;1.00;;;;;;5048575;28;20468;-81
2021/11/03 13:01:02;;;;;;;0.87;0.87;;;12.00;1.00;;;;;;5040551;28;20470;-81
2021/11/03 13:03:33;;;;;;;0.70;0.70;;;12.10;1.00;;;;;;5042933;28;20451;-81
2021/11/03 13:06:05;;;;;;;0.70;0.70;;;11.90;99.90;;;;;;5050384;28;20452;-81
2021/11/03 13:08:41;;;;;;;1.03;0.80;;;11.90;99.90;;;;;;5046995;28;20511;-81
2021/11/03 13:11:18;;;;;;;1.20;0.70;;;12.00;99.90;;;;;;5051161;28;20459;-81
2021/11/03 13:13:51;;;;;;;0.80;0.80;;;12.10;99.90;;;;;;5047241;28;20466;-81
2021/11/03 13:16:28;;;;;;;0.80;0.60;;;12.20;99.90;;;;;;5061845;28;20444;-82